sensor_id;sensor_type;location;lat;lon;timestamp;P1;durP1;ratioP1;P2;durP2;ratioP2
13580;SDS011;6861;46.170;7.222;2023-05-01T00:01:33;4.70;;;3.75;;
13580;SDS011;6861;46.170;7.222;2023-05-01T00:04:01;5.15;;;3.75;;
13580;SDS011;6861;46.170;7.222;2023-05-01T00:06:30;3.20;;;2.90;;
13580;SDS011;6861;46.170;7.222;2023-05-01T00:08:58;3.20;;;2.72;;
13580;SDS011;6861;46.170;7.222;2023-05-01T00:11:27;3.95;;;2.88;;
13580;SDS011;6861;46.170;7.222;2023-05-01T00:13:56;2.78;;;2.55;;
13580;SDS011;6861;46.170;7.222;2023-05-01T00:16:24;3.65;;;2.58;;
13580;SDS011;6861;46.170;7.222;2023-05-01T00:18:52;3.20;;;2.90;;
13580;SDS011;6861;46.170;7.222;2023-05-01T00:21:21;5.22;;;2.85;;
13580;SDS011;6861;46.170;7.222;2023-05-01T00:23:49;4.85;;;2.33;;
13580;SDS011;6861;46.170;7.222;2023-05-01T00:26:17;2.45;;;2.00;;
13580;SDS011;6861;46.170;7.222;2023-05-01T00:28:45;2.53;;;2.30;;
13580;SDS011;6861;46.170;7.222;2023-05-01T00:31:15;2.42;;;2.17;;
13580;SDS011;6861;46.170;7.222;2023-05-01T00:33:43;3.20;;;2.58;;
13580;SDS011;6861;46.170;7.222;2023-05-01T00:36:11;3.05;;;2.33;;
13580;SDS011;6861;46.170;7.222;2023-05-01T00:38:40;3.28;;;2.33;;
13580;SDS011;6861;46.170;7.222;2023-05-01T00:41:08;4.07;;;2.50;;
13580;SDS011;6861;46.170;7.222;2023-05-01T00:43:36;3.90;;;2.78;;
13580;SDS011;6861;46.170;7.222;2023-05-01T00:46:04;5.65;;;3.03;;
13580;SDS011;6861;46.170;7.222;2023-05-01T00:48:34;5.57;;;3.45;;
13580;SDS011;6861;46.170;7.222;2023-05-01T00:51:03;3.88;;;3.10;;
13580;SDS011;6861;46.170;7.222;2023-05-01T00:53:33;3.13;;;2.83;;
13580;SDS011;6861;46.170;7.222;2023-05-01T00:56:02;4.22;;;2.85;;
13580;SDS011;6861;46.170;7.222;2023-05-01T00:58:30;5.35;;;2.78;;
13580;SDS011;6861;46.170;7.222;2023-05-01T01:00:59;3.42;;;2.97;;
13580;SDS011;6861;46.170;7.222;2023-05-01T01:03:27;6.68;;;3.17;;
13580;SDS011;6861;46.170;7.222;2023-05-01T01:05:59;5.88;;;2.63;;
13580;SDS011;6861;46.170;7.222;2023-05-01T01:08:48;2.58;;;2.33;;
13580;SDS011;6861;46.170;7.222;2023-05-01T01:11:27;3.15;;;2.38;;
13580;SDS011;6861;46.170;7.222;2023-05-01T01:14:02;2.72;;;2.50;;
13580;SDS011;6861;46.170;7.222;2023-05-01T01:16:38;3.30;;;3.00;;
13580;SDS011;6861;46.170;7.222;2023-05-01T01:19:19;3.65;;;2.53;;
13580;SDS011;6861;46.170;7.222;2023-05-01T01:22:11;4.00;;;2.80;;
13580;SDS011;6861;46.170;7.222;2023-05-01T01:24:47;4.97;;;2.28;;
13580;SDS011;6861;46.170;7.222;2023-05-01T01:27:38;2.78;;;2.10;;
13580;SDS011;6861;46.170;7.222;2023-05-01T01:36:39;3.92;;;2.78;;
13580;SDS011;6861;46.170;7.222;2023-05-01T01:39:24;4.15;;;2.72;;
13580;SDS011;6861;46.170;7.222;2023-05-01T01:41:57;4.93;;;2.85;;
13580;SDS011;6861;46.170;7.222;2023-05-01T01:44:28;3.60;;;2.80;;
13580;SDS011;6861;46.170;7.222;2023-05-01T01:47:00;2.92;;;2.40;;
13580;SDS011;6861;46.170;7.222;2023-05-01T01:49:33;4.78;;;2.78;;
13580;SDS011;6861;46.170;7.222;2023-05-01T01:52:03;3.22;;;2.63;;
13580;SDS011;6861;46.170;7.222;2023-05-01T01:54:35;2.35;;;2.00;;
13580;SDS011;6861;46.170;7.222;2023-05-01T01:57:06;2.20;;;1.90;;
13580;SDS011;6861;46.170;7.222;2023-05-01T01:59:35;3.70;;;2.00;;
13580;SDS011;6861;46.170;7.222;2023-05-01T02:02:03;2.40;;;2.20;;
13580;SDS011;6861;46.170;7.222;2023-05-01T02:04:34;3.42;;;1.80;;
13580;SDS011;6861;46.170;7.222;2023-05-01T02:07:05;2.40;;;1.77;;
13580;SDS011;6861;46.170;7.222;2023-05-01T02:09:35;3.78;;;2.40;;
13580;SDS011;6861;46.170;7.222;2023-05-01T02:12:04;3.00;;;2.13;;
13580;SDS011;6861;46.170;7.222;2023-05-01T02:14:34;4.03;;;2.00;;
13580;SDS011;6861;46.170;7.222;2023-05-01T02:17:04;3.95;;;2.00;;
13580;SDS011;6861;46.170;7.222;2023-05-01T02:19:35;3.53;;;1.77;;
13580;SDS011;6861;46.170;7.222;2023-05-01T02:22:06;2.35;;;2.00;;
13580;SDS011;6861;46.170;7.222;2023-05-01T02:24:36;5.63;;;2.03;;
13580;SDS011;6861;46.170;7.222;2023-05-01T02:27:07;2.05;;;1.73;;
13580;SDS011;6861;46.170;7.222;2023-05-01T02:29:40;3.67;;;2.28;;
13580;SDS011;6861;46.170;7.222;2023-05-01T02:32:08;2.72;;;2.42;;
13580;SDS011;6861;46.170;7.222;2023-05-01T02:34:37;2.63;;;2.17;;
13580;SDS011;6861;46.170;7.222;2023-05-01T02:37:05;9.57;;;2.20;;
13580;SDS011;6861;46.170;7.222;2023-05-01T02:39:37;4.85;;;2.17;;
13580;SDS011;6861;46.170;7.222;2023-05-01T02:42:06;3.22;;;1.55;;
13580;SDS011;6861;46.170;7.222;2023-05-01T02:44:38;1.52;;;1.10;;
13580;SDS011;6861;46.170;7.222;2023-05-01T02:47:10;1.98;;;1.30;;
13580;SDS011;6861;46.170;7.222;2023-05-01T02:49:44;2.05;;;1.50;;
13580;SDS011;6861;46.170;7.222;2023-05-01T02:52:13;7.35;;;1.10;;
13580;SDS011;6861;46.170;7.222;2023-05-01T02:54:43;4.20;;;1.10;;
13580;SDS011;6861;46.170;7.222;2023-05-01T02:57:12;4.43;;;1.80;;
13580;SDS011;6861;46.170;7.222;2023-05-01T02:59:41;2.65;;;1.80;;
13580;SDS011;6861;46.170;7.222;2023-05-01T03:02:09;3.00;;;2.10;;
13580;SDS011;6861;46.170;7.222;2023-05-01T03:04:37;1.83;;;1.73;;
13580;SDS011;6861;46.170;7.222;2023-05-01T03:07:07;2.55;;;1.70;;
13580;SDS011;6861;46.170;7.222;2023-05-01T03:09:35;3.08;;;0.93;;
13580;SDS011;6861;46.170;7.222;2023-05-01T03:12:04;1.67;;;0.95;;
13580;SDS011;6861;46.170;7.222;2023-05-01T03:14:32;2.30;;;0.80;;
13580;SDS011;6861;46.170;7.222;2023-05-01T03:17:00;1.23;;;0.50;;
13580;SDS011;6861;46.170;7.222;2023-05-01T03:19:28;1.30;;;0.65;;
13580;SDS011;6861;46.170;7.222;2023-05-01T03:21:57;1.90;;;0.50;;
13580;SDS011;6861;46.170;7.222;2023-05-01T03:24:26;1.50;;;0.30;;
13580;SDS011;6861;46.170;7.222;2023-05-01T03:26:54;1.48;;;0.40;;
13580;SDS011;6861;46.170;7.222;2023-05-01T03:29:23;1.17;;;0.40;;
13580;SDS011;6861;46.170;7.222;2023-05-01T03:31:51;4.65;;;0.47;;
13580;SDS011;6861;46.170;7.222;2023-05-01T03:34:19;2.30;;;0.40;;
13580;SDS011;6861;46.170;7.222;2023-05-01T03:36:47;1.55;;;0.32;;
13580;SDS011;6861;46.170;7.222;2023-05-01T03:39:15;1.40;;;0.50;;
13580;SDS011;6861;46.170;7.222;2023-05-01T03:41:45;3.35;;;0.40;;
13580;SDS011;6861;46.170;7.222;2023-05-01T03:44:14;1.20;;;0.45;;
13580;SDS011;6861;46.170;7.222;2023-05-01T03:46:42;2.63;;;0.30;;
13580;SDS011;6861;46.170;7.222;2023-05-01T03:49:10;2.72;;;0.70;;
13580;SDS011;6861;46.170;7.222;2023-05-01T03:51:38;1.00;;;0.50;;
13580;SDS011;6861;46.170;7.222;2023-05-01T03:54:07;0.70;;;0.60;;
13580;SDS011;6861;46.170;7.222;2023-05-01T03:56:35;1.15;;;0.55;;
13580;SDS011;6861;46.170;7.222;2023-05-01T03:59:05;0.75;;;0.40;;
13580;SDS011;6861;46.170;7.222;2023-05-01T04:01:33;1.15;;;0.70;;
13580;SDS011;6861;46.170;7.222;2023-05-01T04:04:01;1.98;;;0.80;;
13580;SDS011;6861;46.170;7.222;2023-05-01T04:06:30;2.15;;;0.70;;
13580;SDS011;6861;46.170;7.222;2023-05-01T04:08:58;3.97;;;1.15;;
13580;SDS011;6861;46.170;7.222;2023-05-01T04:11:27;1.55;;;0.60;;
13580;SDS011;6861;46.170;7.222;2023-05-01T04:13:55;2.08;;;0.68;;
13580;SDS011;6861;46.170;7.222;2023-05-01T04:16:24;1.20;;;0.50;;
13580;SDS011;6861;46.170;7.222;2023-05-01T04:18:53;0.57;;;0.47;;
13580;SDS011;6861;46.170;7.222;2023-05-01T04:21:21;1.40;;;0.60;;
13580;SDS011;6861;46.170;7.222;2023-05-01T04:23:49;2.33;;;0.70;;
13580;SDS011;6861;46.170;7.222;2023-05-01T04:26:17;2.40;;;0.60;;
13580;SDS011;6861;46.170;7.222;2023-05-01T04:28:45;2.05;;;0.55;;
13580;SDS011;6861;46.170;7.222;2023-05-01T04:31:13;0.70;;;0.60;;
13580;SDS011;6861;46.170;7.222;2023-05-01T04:33:43;1.15;;;0.70;;
13580;SDS011;6861;46.170;7.222;2023-05-01T04:36:11;1.85;;;0.70;;
13580;SDS011;6861;46.170;7.222;2023-05-01T04:38:39;1.20;;;0.80;;
13580;SDS011;6861;46.170;7.222;2023-05-01T04:41:08;3.38;;;0.90;;
13580;SDS011;6861;46.170;7.222;2023-05-01T04:43:36;2.10;;;0.82;;
13580;SDS011;6861;46.170;7.222;2023-05-01T04:46:04;1.80;;;0.90;;
13580;SDS011;6861;46.170;7.222;2023-05-01T04:48:32;2.13;;;0.93;;
13580;SDS011;6861;46.170;7.222;2023-05-01T04:51:02;2.00;;;0.68;;
13580;SDS011;6861;46.170;7.222;2023-05-01T04:53:30;1.25;;;0.82;;
13580;SDS011;6861;46.170;7.222;2023-05-01T04:55:59;3.65;;;0.90;;
13580;SDS011;6861;46.170;7.222;2023-05-01T04:58:27;2.25;;;1.08;;
13580;SDS011;6861;46.170;7.222;2023-05-01T05:00:55;2.70;;;0.98;;
13580;SDS011;6861;46.170;7.222;2023-05-01T05:03:23;1.52;;;0.80;;
13580;SDS011;6861;46.170;7.222;2023-05-01T05:05:52;2.92;;;1.30;;
13580;SDS011;6861;46.170;7.222;2023-05-01T05:08:22;2.10;;;1.25;;
13580;SDS011;6861;46.170;7.222;2023-05-01T05:10:55;2.72;;;1.30;;
13580;SDS011;6861;46.170;7.222;2023-05-01T05:13:23;1.60;;;1.00;;
13580;SDS011;6861;46.170;7.222;2023-05-01T05:15:52;3.72;;;1.13;;
13580;SDS011;6861;46.170;7.222;2023-05-01T05:18:20;3.78;;;1.23;;
13580;SDS011;6861;46.170;7.222;2023-05-01T05:20:48;2.45;;;1.17;;
13580;SDS011;6861;46.170;7.222;2023-05-01T05:23:16;2.40;;;1.40;;
13580;SDS011;6861;46.170;7.222;2023-05-01T05:25:46;2.10;;;1.05;;
13580;SDS011;6861;46.170;7.222;2023-05-01T05:28:14;1.00;;;0.85;;
13580;SDS011;6861;46.170;7.222;2023-05-01T05:30:42;1.25;;;0.60;;
13580;SDS011;6861;46.170;7.222;2023-05-01T05:33:12;1.77;;;1.02;;
13580;SDS011;6861;46.170;7.222;2023-05-01T05:35:40;2.55;;;0.82;;
13580;SDS011;6861;46.170;7.222;2023-05-01T05:38:08;2.15;;;0.98;;
13580;SDS011;6861;46.170;7.222;2023-05-01T05:40:36;1.83;;;0.80;;
13580;SDS011;6861;46.170;7.222;2023-05-01T05:43:06;1.50;;;0.80;;
13580;SDS011;6861;46.170;7.222;2023-05-01T05:45:36;1.45;;;0.80;;
13580;SDS011;6861;46.170;7.222;2023-05-01T05:48:04;1.20;;;0.60;;
13580;SDS011;6861;46.170;7.222;2023-05-01T05:50:33;2.10;;;0.70;;
13580;SDS011;6861;46.170;7.222;2023-05-01T05:53:01;1.45;;;0.55;;
13580;SDS011;6861;46.170;7.222;2023-05-01T05:55:29;2.67;;;0.68;;
13580;SDS011;6861;46.170;7.222;2023-05-01T05:57:57;1.92;;;0.60;;
13580;SDS011;6861;46.170;7.222;2023-05-01T06:00:26;1.35;;;0.63;;
13580;SDS011;6861;46.170;7.222;2023-05-01T06:02:55;9.40;;;1.55;;
13580;SDS011;6861;46.170;7.222;2023-05-01T06:05:23;1.02;;;0.60;;
13580;SDS011;6861;46.170;7.222;2023-05-01T06:07:52;1.73;;;0.88;;
13580;SDS011;6861;46.170;7.222;2023-05-01T06:10:20;1.02;;;0.80;;
13580;SDS011;6861;46.170;7.222;2023-05-01T06:12:48;0.93;;;0.55;;
13580;SDS011;6861;46.170;7.222;2023-05-01T06:15:36;1.00;;;0.60;;
13580;SDS011;6861;46.170;7.222;2023-05-01T06:18:05;0.52;;;0.50;;
13580;SDS011;6861;46.170;7.222;2023-05-01T06:20:33;4.10;;;0.60;;
13580;SDS011;6861;46.170;7.222;2023-05-01T06:23:02;0.93;;;0.70;;
13580;SDS011;6861;46.170;7.222;2023-05-01T06:25:30;0.88;;;0.70;;
13580;SDS011;6861;46.170;7.222;2023-05-01T06:27:58;2.00;;;0.80;;
13580;SDS011;6861;46.170;7.222;2023-05-01T06:30:26;2.05;;;0.90;;
13580;SDS011;6861;46.170;7.222;2023-05-01T06:32:56;1.50;;;0.68;;
13580;SDS011;6861;46.170;7.222;2023-05-01T06:35:24;1.35;;;0.63;;
13580;SDS011;6861;46.170;7.222;2023-05-01T06:37:53;0.93;;;0.68;;
13580;SDS011;6861;46.170;7.222;2023-05-01T06:40:22;1.83;;;0.80;;
13580;SDS011;6861;46.170;7.222;2023-05-01T06:42:50;1.55;;;0.80;;
13580;SDS011;6861;46.170;7.222;2023-05-01T06:45:19;1.55;;;0.80;;
13580;SDS011;6861;46.170;7.222;2023-05-01T06:47:47;1.00;;;0.90;;
13580;SDS011;6861;46.170;7.222;2023-05-01T06:50:17;1.02;;;0.70;;
13580;SDS011;6861;46.170;7.222;2023-05-01T06:52:48;2.42;;;1.52;;
13580;SDS011;6861;46.170;7.222;2023-05-01T06:55:17;3.45;;;1.20;;
13580;SDS011;6861;46.170;7.222;2023-05-01T06:57:45;1.38;;;0.88;;
13580;SDS011;6861;46.170;7.222;2023-05-01T07:00:14;3.15;;;0.98;;
13580;SDS011;6861;46.170;7.222;2023-05-01T07:02:44;2.42;;;0.80;;
13580;SDS011;6861;46.170;7.222;2023-05-01T07:05:13;2.22;;;0.90;;
13580;SDS011;6861;46.170;7.222;2023-05-01T07:07:45;3.80;;;1.00;;
13580;SDS011;6861;46.170;7.222;2023-05-01T07:10:26;1.98;;;1.00;;
13580;SDS011;6861;46.170;7.222;2023-05-01T07:12:55;3.17;;;0.95;;
13580;SDS011;6861;46.170;7.222;2023-05-01T07:15:23;1.95;;;0.68;;
13580;SDS011;6861;46.170;7.222;2023-05-01T07:17:51;1.42;;;0.75;;
13580;SDS011;6861;46.170;7.222;2023-05-01T07:20:22;0.93;;;0.60;;
13580;SDS011;6861;46.170;7.222;2023-05-01T07:22:58;1.33;;;0.60;;
13580;SDS011;6861;46.170;7.222;2023-05-01T07:25:27;3.00;;;1.13;;
13580;SDS011;6861;46.170;7.222;2023-05-01T07:27:55;1.45;;;0.77;;
13580;SDS011;6861;46.170;7.222;2023-05-01T07:30:36;1.45;;;0.80;;
13580;SDS011;6861;46.170;7.222;2023-05-01T07:33:11;1.42;;;0.70;;
13580;SDS011;6861;46.170;7.222;2023-05-01T07:35:40;1.42;;;0.77;;
13580;SDS011;6861;46.170;7.222;2023-05-01T07:38:09;1.25;;;0.80;;
13580;SDS011;6861;46.170;7.222;2023-05-01T07:40:46;0.90;;;0.77;;
13580;SDS011;6861;46.170;7.222;2023-05-01T07:43:29;1.02;;;0.77;;
13580;SDS011;6861;46.170;7.222;2023-05-01T07:45:58;1.27;;;0.90;;
13580;SDS011;6861;46.170;7.222;2023-05-01T07:48:27;3.00;;;0.90;;
13580;SDS011;6861;46.170;7.222;2023-05-01T07:50:55;1.85;;;1.10;;
13580;SDS011;6861;46.170;7.222;2023-05-01T07:53:25;1.50;;;1.00;;
13580;SDS011;6861;46.170;7.222;2023-05-01T07:55:53;3.10;;;1.10;;
13580;SDS011;6861;46.170;7.222;2023-05-01T07:58:30;1.88;;;0.93;;
13580;SDS011;6861;46.170;7.222;2023-05-01T08:00:59;2.10;;;1.40;;
13580;SDS011;6861;46.170;7.222;2023-05-01T08:03:27;1.50;;;1.00;;
13580;SDS011;6861;46.170;7.222;2023-05-01T08:05:56;4.43;;;1.02;;
13580;SDS011;6861;46.170;7.222;2023-05-01T08:08:26;1.80;;;1.10;;
13580;SDS011;6861;46.170;7.222;2023-05-01T08:10:54;2.85;;;1.10;;
13580;SDS011;6861;46.170;7.222;2023-05-01T08:13:22;2.22;;;1.02;;
13580;SDS011;6861;46.170;7.222;2023-05-01T08:15:50;1.58;;;0.90;;
13580;SDS011;6861;46.170;7.222;2023-05-01T08:18:19;1.60;;;1.10;;
13580;SDS011;6861;46.170;7.222;2023-05-01T08:20:47;2.42;;;1.42;;
13580;SDS011;6861;46.170;7.222;2023-05-01T08:23:17;3.78;;;1.88;;
13580;SDS011;6861;46.170;7.222;2023-05-01T08:25:46;5.95;;;3.13;;
13580;SDS011;6861;46.170;7.222;2023-05-01T08:28:17;3.55;;;1.77;;
13580;SDS011;6861;46.170;7.222;2023-05-01T08:30:46;5.28;;;2.53;;
13580;SDS011;6861;46.170;7.222;2023-05-01T08:33:15;5.72;;;3.15;;
13580;SDS011;6861;46.170;7.222;2023-05-01T08:35:44;7.38;;;3.85;;
13580;SDS011;6861;46.170;7.222;2023-05-01T08:38:12;6.55;;;3.42;;
13580;SDS011;6861;46.170;7.222;2023-05-01T08:40:41;2.45;;;1.60;;
13580;SDS011;6861;46.170;7.222;2023-05-01T08:43:15;1.85;;;1.33;;
13580;SDS011;6861;46.170;7.222;2023-05-01T08:45:44;3.33;;;1.48;;
13580;SDS011;6861;46.170;7.222;2023-05-01T08:48:14;2.47;;;1.33;;
13580;SDS011;6861;46.170;7.222;2023-05-01T08:50:44;2.28;;;1.30;;
13580;SDS011;6861;46.170;7.222;2023-05-01T08:53:14;1.52;;;1.10;;
13580;SDS011;6861;46.170;7.222;2023-05-01T08:55:44;2.22;;;0.90;;
13580;SDS011;6861;46.170;7.222;2023-05-01T08:58:13;2.63;;;1.08;;
13580;SDS011;6861;46.170;7.222;2023-05-01T09:00:44;1.60;;;1.10;;
13580;SDS011;6861;46.170;7.222;2023-05-01T09:03:13;4.10;;;1.30;;
13580;SDS011;6861;46.170;7.222;2023-05-01T09:05:43;2.00;;;1.27;;
13580;SDS011;6861;46.170;7.222;2023-05-01T09:08:12;2.55;;;1.30;;
13580;SDS011;6861;46.170;7.222;2023-05-01T09:10:41;1.70;;;1.20;;
13580;SDS011;6861;46.170;7.222;2023-05-01T09:13:12;3.75;;;1.90;;
13580;SDS011;6861;46.170;7.222;2023-05-01T09:15:42;3.28;;;1.80;;
13580;SDS011;6861;46.170;7.222;2023-05-01T09:18:11;6.80;;;3.25;;
13580;SDS011;6861;46.170;7.222;2023-05-01T09:20:40;2.63;;;2.33;;
13580;SDS011;6861;46.170;7.222;2023-05-01T09:23:08;6.15;;;1.67;;
13580;SDS011;6861;46.170;7.222;2023-05-01T09:25:38;4.15;;;1.48;;
13580;SDS011;6861;46.170;7.222;2023-05-01T09:28:06;1.23;;;1.10;;
13580;SDS011;6861;46.170;7.222;2023-05-01T09:30:36;1.45;;;1.25;;
13580;SDS011;6861;46.170;7.222;2023-05-01T09:33:06;1.10;;;1.00;;
13580;SDS011;6861;46.170;7.222;2023-05-01T09:35:48;2.45;;;1.23;;
13580;SDS011;6861;46.170;7.222;2023-05-01T09:38:18;1.83;;;1.58;;
13580;SDS011;6861;46.170;7.222;2023-05-01T09:40:47;3.42;;;1.40;;
13580;SDS011;6861;46.170;7.222;2023-05-01T09:43:22;1.70;;;1.20;;
13580;SDS011;6861;46.170;7.222;2023-05-01T09:46:00;3.92;;;1.30;;
13580;SDS011;6861;46.170;7.222;2023-05-01T09:48:30;1.25;;;1.10;;
13580;SDS011;6861;46.170;7.222;2023-05-01T09:51:03;3.42;;;1.27;;
13580;SDS011;6861;46.170;7.222;2023-05-01T09:53:47;4.75;;;1.10;;
13580;SDS011;6861;46.170;7.222;2023-05-01T09:56:15;2.38;;;1.38;;
13580;SDS011;6861;46.170;7.222;2023-05-01T09:58:43;1.98;;;1.30;;
13580;SDS011;6861;46.170;7.222;2023-05-01T10:01:14;2.65;;;1.20;;
13580;SDS011;6861;46.170;7.222;2023-05-01T10:03:43;3.72;;;1.20;;
13580;SDS011;6861;46.170;7.222;2023-05-01T10:06:24;2.90;;;1.23;;
13580;SDS011;6861;46.170;7.222;2023-05-01T10:08:54;1.92;;;1.20;;
13580;SDS011;6861;46.170;7.222;2023-05-01T10:11:23;2.03;;;1.15;;
13580;SDS011;6861;46.170;7.222;2023-05-01T10:14:05;3.20;;;1.23;;
13580;SDS011;6861;46.170;7.222;2023-05-01T10:16:36;1.48;;;1.00;;
13580;SDS011;6861;46.170;7.222;2023-05-01T10:19:05;1.90;;;0.90;;
13580;SDS011;6861;46.170;7.222;2023-05-01T10:21:33;1.02;;;0.80;;
13580;SDS011;6861;46.170;7.222;2023-05-01T10:24:02;1.05;;;0.90;;
13580;SDS011;6861;46.170;7.222;2023-05-01T10:26:31;2.53;;;1.08;;
13580;SDS011;6861;46.170;7.222;2023-05-01T10:29:00;1.10;;;1.00;;
13580;SDS011;6861;46.170;7.222;2023-05-01T10:31:28;1.70;;;1.20;;
13580;SDS011;6861;46.170;7.222;2023-05-01T10:34:00;1.63;;;1.00;;
13580;SDS011;6861;46.170;7.222;2023-05-01T10:36:30;1.55;;;1.08;;
13580;SDS011;6861;46.170;7.222;2023-05-01T10:39:03;1.52;;;1.00;;
13580;SDS011;6861;46.170;7.222;2023-05-01T10:44:29;0.95;;;0.88;;
13580;SDS011;6861;46.170;7.222;2023-05-01T10:46:57;1.40;;;0.90;;
13580;SDS011;6861;46.170;7.222;2023-05-01T10:52:25;1.88;;;1.20;;
13580;SDS011;6861;46.170;7.222;2023-05-01T10:54:53;5.13;;;1.38;;
13580;SDS011;6861;46.170;7.222;2023-05-01T10:58:00;1.67;;;0.90;;
13580;SDS011;6861;46.170;7.222;2023-05-01T11:00:29;1.27;;;1.00;;
13580;SDS011;6861;46.170;7.222;2023-05-01T11:06:06;1.55;;;0.90;;
13580;SDS011;6861;46.170;7.222;2023-05-01T11:08:36;1.50;;;0.80;;
13580;SDS011;6861;46.170;7.222;2023-05-01T11:14:07;2.53;;;1.33;;
13580;SDS011;6861;46.170;7.222;2023-05-01T11:16:39;1.73;;;1.27;;
13580;SDS011;6861;46.170;7.222;2023-05-01T11:19:09;1.80;;;0.90;;
13580;SDS011;6861;46.170;7.222;2023-05-01T11:21:38;1.00;;;0.75;;
13580;SDS011;6861;46.170;7.222;2023-05-01T11:24:08;0.80;;;0.70;;
13580;SDS011;6861;46.170;7.222;2023-05-01T11:26:37;0.77;;;0.60;;
13580;SDS011;6861;46.170;7.222;2023-05-01T11:29:06;0.75;;;0.60;;
13580;SDS011;6861;46.170;7.222;2023-05-01T11:31:35;0.88;;;0.60;;
13580;SDS011;6861;46.170;7.222;2023-05-01T11:34:04;1.48;;;0.80;;
13580;SDS011;6861;46.170;7.222;2023-05-01T11:36:45;0.47;;;0.40;;
13580;SDS011;6861;46.170;7.222;2023-05-01T11:39:16;1.55;;;0.80;;
13580;SDS011;6861;46.170;7.222;2023-05-01T11:41:45;1.70;;;0.60;;
13580;SDS011;6861;46.170;7.222;2023-05-01T11:44:14;1.63;;;0.60;;
13580;SDS011;6861;46.170;7.222;2023-05-01T11:46:43;1.65;;;0.60;;
13580;SDS011;6861;46.170;7.222;2023-05-01T11:49:11;0.77;;;0.75;;
13580;SDS011;6861;46.170;7.222;2023-05-01T11:51:40;1.02;;;0.60;;
13580;SDS011;6861;46.170;7.222;2023-05-01T11:54:08;1.88;;;0.70;;
13580;SDS011;6861;46.170;7.222;2023-05-01T11:56:42;0.75;;;0.50;;
13580;SDS011;6861;46.170;7.222;2023-05-01T11:59:10;0.93;;;0.43;;
13580;SDS011;6861;46.170;7.222;2023-05-01T12:01:41;1.25;;;0.70;;
13580;SDS011;6861;46.170;7.222;2023-05-01T12:04:11;1.23;;;0.70;;
13580;SDS011;6861;46.170;7.222;2023-05-01T12:06:41;0.60;;;0.50;;
13580;SDS011;6861;46.170;7.222;2023-05-01T12:09:14;0.70;;;0.70;;
13580;SDS011;6861;46.170;7.222;2023-05-01T12:11:45;1.40;;;0.80;;
13580;SDS011;6861;46.170;7.222;2023-05-01T12:14:18;0.80;;;0.70;;
13580;SDS011;6861;46.170;7.222;2023-05-01T12:16:47;1.05;;;0.60;;
13580;SDS011;6861;46.170;7.222;2023-05-01T12:19:16;1.20;;;0.80;;
13580;SDS011;6861;46.170;7.222;2023-05-01T12:22:03;2.47;;;0.77;;
13580;SDS011;6861;46.170;7.222;2023-05-01T12:24:32;0.90;;;0.65;;
13580;SDS011;6861;46.170;7.222;2023-05-01T12:27:01;1.08;;;0.60;;
13580;SDS011;6861;46.170;7.222;2023-05-01T12:29:38;1.23;;;0.75;;
13580;SDS011;6861;46.170;7.222;2023-05-01T12:32:06;2.63;;;1.33;;
13580;SDS011;6861;46.170;7.222;2023-05-01T12:34:35;5.25;;;1.13;;
13580;SDS011;6861;46.170;7.222;2023-05-01T12:37:05;1.75;;;0.70;;
13580;SDS011;6861;46.170;7.222;2023-05-01T12:39:37;1.17;;;0.70;;
13580;SDS011;6861;46.170;7.222;2023-05-01T12:42:12;1.00;;;0.63;;
13580;SDS011;6861;46.170;7.222;2023-05-01T12:44:42;5.05;;;0.63;;
13580;SDS011;6861;46.170;7.222;2023-05-01T12:47:11;1.63;;;0.80;;
13580;SDS011;6861;46.170;7.222;2023-05-01T12:49:39;1.00;;;0.65;;
13580;SDS011;6861;46.170;7.222;2023-05-01T12:52:08;1.13;;;0.70;;
13580;SDS011;6861;46.170;7.222;2023-05-01T12:54:36;1.13;;;0.68;;
13580;SDS011;6861;46.170;7.222;2023-05-01T12:57:06;1.67;;;0.60;;
13580;SDS011;6861;46.170;7.222;2023-05-01T12:59:38;0.88;;;0.63;;
13580;SDS011;6861;46.170;7.222;2023-05-01T13:02:07;0.50;;;0.50;;
13580;SDS011;6861;46.170;7.222;2023-05-01T13:04:38;0.63;;;0.47;;
13580;SDS011;6861;46.170;7.222;2023-05-01T13:07:10;0.75;;;0.70;;
13580;SDS011;6861;46.170;7.222;2023-05-01T13:09:49;0.85;;;0.60;;
13580;SDS011;6861;46.170;7.222;2023-05-01T13:12:19;2.22;;;0.80;;
13580;SDS011;6861;46.170;7.222;2023-05-01T13:14:49;3.60;;;1.00;;
13580;SDS011;6861;46.170;7.222;2023-05-01T13:17:21;5.20;;;1.50;;
13580;SDS011;6861;46.170;7.222;2023-05-01T13:19:54;3.13;;;1.25;;
13580;SDS011;6861;46.170;7.222;2023-05-01T13:22:30;2.25;;;1.00;;
13580;SDS011;6861;46.170;7.222;2023-05-01T13:25:00;2.40;;;1.13;;
13580;SDS011;6861;46.170;7.222;2023-05-01T13:27:30;4.05;;;1.25;;
13580;SDS011;6861;46.170;7.222;2023-05-01T13:30:00;1.45;;;0.80;;
13580;SDS011;6861;46.170;7.222;2023-05-01T13:32:29;1.42;;;0.80;;
13580;SDS011;6861;46.170;7.222;2023-05-01T13:34:59;2.08;;;1.00;;
13580;SDS011;6861;46.170;7.222;2023-05-01T13:37:28;1.80;;;0.80;;
13580;SDS011;6861;46.170;7.222;2023-05-01T13:39:57;2.30;;;0.80;;
13580;SDS011;6861;46.170;7.222;2023-05-01T13:42:26;1.83;;;0.90;;
13580;SDS011;6861;46.170;7.222;2023-05-01T13:44:55;2.33;;;0.70;;
13580;SDS011;6861;46.170;7.222;2023-05-01T13:47:25;0.70;;;0.60;;
13580;SDS011;6861;46.170;7.222;2023-05-01T13:49:54;2.28;;;0.80;;
13580;SDS011;6861;46.170;7.222;2023-05-01T13:52:23;2.72;;;1.20;;
13580;SDS011;6861;46.170;7.222;2023-05-01T13:54:51;3.03;;;0.90;;
13580;SDS011;6861;46.170;7.222;2023-05-01T13:57:22;2.28;;;0.80;;
13580;SDS011;6861;46.170;7.222;2023-05-01T13:59:50;1.25;;;0.80;;
13580;SDS011;6861;46.170;7.222;2023-05-01T14:02:19;1.88;;;0.82;;
13580;SDS011;6861;46.170;7.222;2023-05-01T14:04:52;3.70;;;0.80;;
13580;SDS011;6861;46.170;7.222;2023-05-01T14:07:25;2.85;;;0.95;;
13580;SDS011;6861;46.170;7.222;2023-05-01T14:09:54;0.98;;;0.80;;
13580;SDS011;6861;46.170;7.222;2023-05-01T14:12:27;2.15;;;0.95;;
13580;SDS011;6861;46.170;7.222;2023-05-01T14:14:56;2.78;;;0.75;;
13580;SDS011;6861;46.170;7.222;2023-05-01T14:17:28;1.25;;;0.80;;
13580;SDS011;6861;46.170;7.222;2023-05-01T14:19:58;1.77;;;0.88;;
13580;SDS011;6861;46.170;7.222;2023-05-01T14:22:28;1.10;;;0.80;;
13580;SDS011;6861;46.170;7.222;2023-05-01T14:24:56;2.17;;;0.82;;
13580;SDS011;6861;46.170;7.222;2023-05-01T14:27:25;2.47;;;1.10;;
13580;SDS011;6861;46.170;7.222;2023-05-01T14:29:53;3.92;;;0.95;;
13580;SDS011;6861;46.170;7.222;2023-05-01T14:32:22;1.30;;;0.90;;
13580;SDS011;6861;46.170;7.222;2023-05-01T14:34:50;1.38;;;0.90;;
13580;SDS011;6861;46.170;7.222;2023-05-01T14:37:20;1.33;;;0.73;;
13580;SDS011;6861;46.170;7.222;2023-05-01T14:39:48;3.40;;;1.00;;
13580;SDS011;6861;46.170;7.222;2023-05-01T14:42:16;1.08;;;0.82;;
13580;SDS011;6861;46.170;7.222;2023-05-01T14:44:45;1.15;;;0.90;;
13580;SDS011;6861;46.170;7.222;2023-05-01T14:47:13;1.52;;;0.95;;
13580;SDS011;6861;46.170;7.222;2023-05-01T14:49:48;2.50;;;1.30;;
13580;SDS011;6861;46.170;7.222;2023-05-01T14:52:19;1.40;;;0.98;;
13580;SDS011;6861;46.170;7.222;2023-05-01T14:54:48;2.53;;;1.00;;
13580;SDS011;6861;46.170;7.222;2023-05-01T14:57:18;1.77;;;0.75;;
13580;SDS011;6861;46.170;7.222;2023-05-01T14:59:46;1.15;;;0.65;;
13580;SDS011;6861;46.170;7.222;2023-05-01T15:02:14;0.80;;;0.55;;
13580;SDS011;6861;46.170;7.222;2023-05-01T15:04:43;0.88;;;0.73;;
13580;SDS011;6861;46.170;7.222;2023-05-01T15:07:11;1.20;;;1.08;;
13580;SDS011;6861;46.170;7.222;2023-05-01T15:09:41;4.63;;;1.80;;
13580;SDS011;6861;46.170;7.222;2023-05-01T15:12:11;2.45;;;1.73;;
13580;SDS011;6861;46.170;7.222;2023-05-01T15:14:39;2.17;;;1.55;;
13580;SDS011;6861;46.170;7.222;2023-05-01T15:17:08;2.85;;;1.00;;
13580;SDS011;6861;46.170;7.222;2023-05-01T15:19:36;3.40;;;1.52;;
13580;SDS011;6861;46.170;7.222;2023-05-01T15:22:04;1.67;;;1.17;;
13580;SDS011;6861;46.170;7.222;2023-05-01T15:24:32;2.90;;;1.00;;
13580;SDS011;6861;46.170;7.222;2023-05-01T15:27:02;2.40;;;1.25;;
13580;SDS011;6861;46.170;7.222;2023-05-01T15:29:30;6.07;;;4.25;;
13580;SDS011;6861;46.170;7.222;2023-05-01T15:31:59;1.63;;;1.02;;
13580;SDS011;6861;46.170;7.222;2023-05-01T15:34:37;2.67;;;1.77;;
13580;SDS011;6861;46.170;7.222;2023-05-01T15:37:06;2.00;;;0.70;;